Wederom door onbekende storing windmeter kunnen wij tijdelijk niet beschikken over actuele windsnelheden / gevoelstemperatuur

Update & Upgrade Weerstation Parkstad


Bewolking Meer informatie Parkstad Weather Satellite


Neerslagradar Meer informatie Parkstad Rain Snow Radar


Onweersbuien Meer informatie Parkstad Lighntning


24/7 Weercamera Meer informatie Parkstad Weathercam


Natuurbrandrisico
CBI







Het weer levert geen direct gevaar op in Parkstad.    Er zijn geen waarschuwingen afgegeven voor Parkstad (045)

METAR rapporten vliegvelden

   
EHAM - Amsterdam
Gewijzigd: 14-05-2021 15:25
Licht bewolkt  
Licht bewolkt  
   Wind: WNW 7.4 km/h
Wind: WNW 7.4 km/h
Temperatuur: 15°C
Dauwpunt: 8°C
Vochtigheid: 63%
Barometer: 1008 hPa
Satelliet beelden: Licht bewolkt
Zicht: meer dan 10 km
Bewolking: Licht bewolkt 732 m
EHAM 141325Z 29004KT 230V010 9999 FEW024 15/08 Q1008 NOSIG
EBAW - Antwerpen
Gewijzigd: 14-05-2021 15:20
Kleine regenbuien, Neerslag, Licht bewolkt  
Kleine regenbuien, Neerslag, Licht bewolkt  
   Wind: ZW 13 km/h
Wind: ZW 13 km/h
Temperatuur: 13°C
Dauwpunt: 8°C
Vochtigheid: 72%
Barometer: 1008 hPa
Satelliet beelden: Licht bewolkt
Zicht: meer dan 10 km
Bewolking: Licht bewolkt 488 m
EBAW 141320Z 22007KT 9999 -SHRA FEW016CB 13/08 Q1008 TEMPO 4000 SHRA
EGLL - London
Gewijzigd: 14-05-2021 15:20
Bewolking  
Bewolking  
   Wind: NNW 9.3 km/h
Wind: NNW 9.3 km/h
Temperatuur: 12°C
Dauwpunt: 7°C
Vochtigheid: 72%
Barometer: 1010 hPa
Satelliet beelden: Bewolking
Zicht: meer dan 10 km
Bewolking: Grotendeels bewolkt 671 m,
Grotendeels bewolkt 853 m,
Bewolking 1036 m
EGLL 141320Z AUTO 34005KT 280V030 9999 BKN022 BKN028 OVC034 12/07 Q1010
ELLX - Luxemburg
Gewijzigd: 14-05-2021 15:20
Gedeeltelijk bewolkt  
Gedeeltelijk bewolkt  
   Wind: Zuiden 13 km/h
Wind: Zuiden 13 km/h
Temperatuur: 13°C
Dauwpunt: 7°C
Vochtigheid: 67%
Barometer: 1008 hPa
Satelliet beelden: Gedeeltelijk bewolkt
Zicht: meer dan 10 km
Bewolking: Licht bewolkt 1219 m,
Gedeeltelijk bewolkt 1829 m
ELLX 141320Z 18007KT 150V210 9999 FEW040CB SCT060 13/07 Q1008 TEMPO 24015G25KT 4000 SHRA SCT035CB
EDDT - Berlijn
Gewijzigd: 09-11-2020 07:50
Verouderd
Nevel, Bewolking  
Nevel, Bewolking  
   Wind: Oosten 11.1 km/h
Wind: Oosten 11.1 km/h
Temperatuur: 6°C
Voelt als: 4°C
Dauwpunt: 5°C
Vochtigheid: 93%
Barometer: 1027 hPa
Satelliet beelden: Bewolking
Zicht: 3 km
Bewolking: Bewolking 91 m
EDDT 090650Z 09006KT 050V120 3000 BR OVC003 06/05 Q1027
EDDM - München
Gewijzigd: 14-05-2021 15:20
Licht bewolkt  
Licht bewolkt  
   Wind: WZW 11.1 km/h
Wind: WZW 11.1 km/h
Temperatuur: 16°C
Dauwpunt: 5°C
Vochtigheid: 48%
Barometer: 1008 hPa
Satelliet beelden: Licht bewolkt
Zicht: meer dan 10 km
Bewolking: Licht bewolkt 1402 m
EDDM 141320Z 25006KT 160V310 9999 FEW046TCU 16/05 Q1008 NOSIG
LFPO - Parijs
Gewijzigd: 14-05-2021 15:30
Grotendeels bewolkt  
Grotendeels bewolkt  
   Wind: WZW 22.2 km/h
Wind: WZW 22.2 km/h
Temperatuur: 14°C
Dauwpunt: 10°C
Vochtigheid: 77%
Barometer: 1009 hPa
Satelliet beelden: Grotendeels bewolkt
Zicht: meer dan 10 km
Bewolking: Licht bewolkt 610 m,
Gedeeltelijk bewolkt 701 m,
Grotendeels bewolkt 1615 m
LFPO 141330Z 25012KT 9999 FEW020CB SCT023 BKN053 14/10 Q1009 TEMPO 4000 -SHRA BKN020CB
EDDL - Düsseldorf
Gewijzigd: 14-05-2021 15:20
Gedeeltelijk bewolkt  
Gedeeltelijk bewolkt  
   Wind: Zuiden 13 km/h
Wind: Zuiden 13 km/h
Temperatuur: 17°C
Dauwpunt: 7°C
Vochtigheid: 52%
Barometer: 1007 hPa
Satelliet beelden: Gedeeltelijk bewolkt
Zicht: meer dan 10 km
Bewolking: Gedeeltelijk bewolkt 1463 m
EDDL 141320Z 19007KT 150V230 9999 SCT048TCU 17/07 Q1007 TEMPO 27012KT SHRA
EDDK - Köln/Bonn Duitsland
Gewijzigd: 14-05-2021 15:20
Licht bewolkt  
Licht bewolkt  
   Wind: NNW 11.1 km/h
Wind: NNW 11.1 km/h
Temperatuur: 17°C
Dauwpunt: 6°C
Vochtigheid: 49%
Barometer: 1007 hPa
Satelliet beelden: Licht bewolkt
Zicht: meer dan 10 km
Bewolking: Licht bewolkt 1219 m,
Licht bewolkt 1341 m
EDDK 141320Z 34006KT 280V050 9999 FEW040CB FEW044TCU 17/06 Q1007 TEMPO SHRA
TNCA - Oranjestad Aruba
Gewijzigd: 14-05-2021 15:00
Gedeeltelijk bewolkt  
Gedeeltelijk bewolkt  
   Wind: Oosten 35.2 km/h
Wind: Oosten 35.2 km/h
Temperatuur: 29°C
Gevoelstemperatuur: 33°C
Dauwpunt: 23°C
Vochtigheid: 70%
Barometer: 1014 hPa
Satelliet beelden: Gedeeltelijk bewolkt
Zicht: meer dan 10 km
Bewolking: Gedeeltelijk bewolkt 610 m
TNCA 141300Z 10019KT 9999 SCT020 29/23 Q1014 NOSIG
TNCC - Willemstad Curacao
Gewijzigd: 14-05-2021 15:00
Gedeeltelijk bewolkt  
Gedeeltelijk bewolkt  
   Wind: Oosten 24.1 km/h
Wind: Oosten 24.1 km/h
Temperatuur: 29°C
Gevoelstemperatuur: 32°C
Dauwpunt: 22°C
Vochtigheid: 66%
Barometer: 1014 hPa
Satelliet beelden: Gedeeltelijk bewolkt
Zicht: meer dan 10 km
Bewolking: Gedeeltelijk bewolkt 640 m
TNCC 141300Z 10013KT 9999 SCT021 29/22 Q1014 NOSIG
LEAL - La Nucia Spanje
Gewijzigd: 14-05-2021 15:30
Helder  
Helder  
   Wind: ONO 33.3 km/h
Wind: ONO 33.3 km/h
Temperatuur: 22°C
Dauwpunt: 13°C
Vochtigheid: 57%
Barometer: 1016 hPa
Zicht: meer dan 10 km
Bewolking: Helder
LEAL 141330Z 07018KT CAVOK 22/13 Q1016 NOSIG

Script ontwikkeld door  Saratoga-weather.org Aangepast voor de template door  Weerstation Leuven

U vindt ons ook hier:

Het Weer Aktueel

WOW Nederland KNMI

Vereniging voor Weerkunde en Klimatologie

UK Met Office Weather Observation Website (WOW)

WeatherCloud

Weather Underground

Awekas

MeteoMap.Cloud

HAMweather, WeatherForYou, PWS Weather

Citizen Weather Observer Program (CWOP)

Apparatuur in gebruik:

Hardwareleverancier
Weerhuisje

Weerstation
Vantage Pro2+ UV

Weercomputer's
alix3d2 & wl330n

Weerprogramma's
Smartbedded

Satelliet NOAA's
WRX137 & KX137

Satelliet Eumetsat
Ayecka SR1 & Triax

Bliksemdetectie
Boltek StormTracker

Webleverancier
F-Service

Weerhuisje

Vantage Pro2+ UV

alix3d2 & wl330n

Smartbedded

WRX137 & KX137

Ayecka SR1 & Triax

Boltek StormTracker

F-Service